Overview Statistics Trail Chart Weather Telemetry Raw packets
 

This is the latest recevied weather packets stored in our database for station/object Ummendorf. If no packets are shown the sender has not sent any weather packets the latest 10 day(s).

<< 1 2 3 4 5 6 7 >>
Time Temp. Humidity Pressure Rain* Wind** Luminosity Snow
1788444130 25.56° C 35% 1022 hPa 0 mm - - -
1788442331 24.44° C 38% 1022.2 hPa 0 mm - - -
1788440530 25.56° C 35% 1022.4 hPa 0 mm - - -
1788438735 25° C 36% 1022.3 hPa 0 mm - - -
1788436935 25.56° C 32% 1022.3 hPa 0 mm - - -
1788435130 25.56° C 34% 1022.6 hPa 0 mm - - -
1788433330 25° C 33% 1022.7 hPa 0 mm - - -
1788431530 24.44° C 37% 1022.9 hPa 0 mm - - -
1788429731 23.89° C 40% 1022.9 hPa 0 mm - - -
1788427930 22.78° C 44% 1023.4 hPa 0 mm - - -
1788426130 22.22° C 43% 1023.4 hPa 0 mm - - -
1788424330 21.11° C 46% 1023.7 hPa 0 mm - - -
1788422530 19.44° C 53% 1023.4 hPa 0 mm - - -
1788420736 17.22° C 57% 1023.4 hPa 0 mm - - -
1788418930 15° C 66% 1023.6 hPa 0 mm - - -
1788417130 13.33° C 69% 1024 hPa 0 mm - - -
1788415329 12.22° C 70% 1023.7 hPa 0 mm - - -
1788413529 11.67° C 70% 1023.4 hPa 0 mm - - -
1788411729 11.11° C 68% 1023.3 hPa 0 mm - - -
1788409929 11.11° C 67% 1023.4 hPa 0 mm - - -
1788408130 11.67° C 67% 1023.1 hPa 0 mm - - -
1788406331 11.67° C 66% 1023 hPa 0 mm - - -
1788404529 12.22° C 66% 1023.2 hPa 0 mm - - -
1788402730 12.22° C 66% 1023.1 hPa 0 mm - - -
1788400929 12.22° C 65% 1023.1 hPa 0 mm - - -

* Rain since midnight (hover to see other rain measurements)
** Current wind speed in m/s (hover to see current wind gust speed)